EST,Max TemperatureF,Mean TemperatureF,Min TemperatureF,Max Dew PointF,MeanDew PointF,Min DewpointF,Max Humidity, Mean Humidity, Min Humidity, Max Sea Level PressureIn, Mean Sea Level PressureIn, Min Sea Level PressureIn, Max VisibilityMiles, Mean VisibilityMiles, Min VisibilityMiles, Max Wind SpeedMPH, Mean Wind SpeedMPH, Max Gust SpeedMPH,PrecipitationIn, CloudCover, Events, WindDirDegrees
2014-2-1,18,15,12,15,12,10,94,88,81,30.06,29.99,29.91,10,7,1,8,3,,0.00,8,Snow,211
2014-2-2,18,9,0,12,7,-4,93,83,62,30.22,30.10,29.96,10,8,1,14,7,17,0.00,6,Snow,285
2014-2-3,14,6,-2,10,4,-5,91,79,68,30.26,30.23,30.20,10,9,1,14,8,20,0.00,2,Snow,207
2014-2-4,21,13,5,13,8,2,92,77,63,30.39,30.33,30.24,10,10,2,10,6,17,0.00,5,Snow,307
2014-2-5,15,8,2,8,2,-2,85,74,64,30.30,30.25,30.19,10,10,1,12,8,18,0.00,4,Snow,343
2014-2-6,10,6,3,8,3,-1,88,84,76,30.30,30.15,30.04,10,8,1,17,8,26,0.00,7,Snow,244
2014-2-7,14,8,2,11,5,-1,93,84,73,30.07,30.02,29.98,10,6,0,23,14,36,0.00,6,Snow,245
2014-2-8,14,8,2,7,2,-4,92,77,64,30.16,30.12,30.07,10,10,3,13,8,18,0.00,2,Snow,245
2014-2-9,19,12,4,11,4,-1,91,78,54,30.15,30.05,30.00,10,9,1,9,2,,0.00,6,Snow,341
2014-2-10,9,4,-1,2,-2,-7,87,77,62,30.36,30.24,30.15,10,9,1,14,6,18,0.00,6,Snow,288
2014-2-11,9,2,-4,1,-4,-9,85,76,63,30.44,30.38,30.28,10,10,10,13,7,16,0.00,2,,248
2014-2-12,20,12,4,15,10,-3,93,82,71,30.28,30.11,30.00,10,7,1,14,8,22,0.00,8,Snow,194
2014-2-13,24,20,16,20,17,14,94,86,64,30.01,29.78,29.50,10,7,1,16,5,24,0.00,8,Snow,125
2014-2-14,26,14,1,22,15,-2,97,89,77,29.80,29.59,29.45,10,5,0,15,9,22,0.01,7,Snow,5
2014-2-15,8,3,-2,6,0,-6,90,82,71,30.02,29.95,29.80,10,8,0,12,6,,0.00,4,Snow,285
2014-2-16,16,8,-1,7,3,-5,91,77,49,30.33,30.15,29.98,10,8,2,12,5,,0.00,3,Snow,24
2014-2-17,21,10,0,15,5,-4,93,74,51,30.35,30.11,29.77,10,8,1,21,9,33,0.00,3,Snow,120
2014-2-18,28,18,8,24,16,7,96,88,71,29.81,29.71,29.54,10,8,1,14,8,24,0.00,3,Snow,132
2014-2-19,31,22,14,28,21,13,100,87,65,29.88,29.70,29.54,10,7,0,14,6,22,0.00,3,Fog,246
2014-2-20,32,28,23,32,26,20,100,90,73,29.95,29.79,29.32,10,7,2,28,10,47,0.09,4,Snow,105
2014-2-21,35,26,17,35,26,16,100,94,81,29.43,29.21,29.11,10,3,0,25,18,41,0.02,8,Snow,208
2014-2-22,20,16,13,17,13,8,93,85,70,29.80,29.63,29.44,10,4,1,28,18,33,0.00,7,Snow,252
2014-2-23,15,12,8,8,5,0,83,74,65,29.94,29.89,29.80,10,9,5,23,15,37,0.00,4,,262
2014-2-24,13,8,4,5,2,-2,87,76,58,30.10,30.01,29.93,10,10,1,21,15,25,0.00,5,Snow,273
2014-2-25,13,6,-1,8,2,-9,90,78,55,30.08,29.98,29.91,10,7,1,20,10,24,0.00,7,Snow,269
2014-2-26,9,2,-6,7,-3,-11,89,79,65,29.96,29.73,29.42,10,8,0,20,12,32,0.00,4,Snow,255
2014-2-27,3,-5,-15,-2,-13,-23,81,63,43,30.17,29.82,29.43,10,9,2,22,12,31,0.00,3,,309
2014-2-28,12,-2,-16,7,-10,-24,88,67,48,30.24,30.14,29.98,10,8,1,15,7,21,0.00,5,Snow,162